Time;durP1;ratioP1;P1;durP2;ratioP2;P2;SDS_P1;SDS_P2;PMS_P1;PMS_P2;Temp;Humidity;BMP_temperature;BMP_pressure;BME280_temperature;BME280_humidity;BME280_pressure;Samples;Min_cycle;Max_cycle;Signal;HPM_P1;HPM_P2
2022/12/23 00:00:12;;;;;;;5.53;1.02;;;10.80;99.90;;;;;;4999179;28;20061;-79
2022/12/23 00:02:37;;;;;;;8.07;1.58;;;10.80;99.90;;;;;;4995015;28;20125;-78
2022/12/23 00:05:04;;;;;;;9.30;2.20;;;10.80;99.90;;;;;;4996411;28;20033;-78
2022/12/23 00:07:30;;;;;;;4.00;1.17;;;10.80;99.90;;;;;;4996618;28;20548;-78
2022/12/23 00:09:55;;;;;;;6.53;1.38;;;10.80;99.90;;;;;;5012692;28;20594;-78
2022/12/23 00:15:06;;;;;;;7.70;1.42;;;10.80;99.90;;;;;;5004630;28;20140;-78
2022/12/23 00:17:33;;;;;;;6.28;1.27;;;10.80;99.90;;;;;;4997864;28;20030;-78
2022/12/23 00:19:59;;;;;;;6.60;1.42;;;10.80;99.90;;;;;;4993246;28;20154;-78
2022/12/23 00:25:10;;;;;;;4.40;1.13;;;10.80;99.90;;;;;;4995703;28;20040;-79
2022/12/23 00:27:36;;;;;;;4.50;1.58;;;10.80;99.90;;;;;;5003561;28;20516;-78
2022/12/23 00:30:02;;;;;;;2.92;1.10;;;10.70;99.90;;;;;;4995742;28;20049;-78
2022/12/23 00:32:27;;;;;;;5.50;1.02;;;10.60;99.90;;;;;;5006343;28;20107;-78
2022/12/23 00:34:53;;;;;;;3.75;1.05;;;10.60;99.90;;;;;;5001604;28;20030;-78
2022/12/23 00:37:19;;;;;;;7.55;1.30;;;10.70;99.90;;;;;;5004557;28;20125;-78
2022/12/23 00:45:15;;;;;;;3.28;1.10;;;10.70;99.90;;;;;;5024922;28;20092;-78
2022/12/23 00:50:27;;;;;;;4.25;1.17;;;10.50;99.90;;;;;;5033701;28;20298;-78
2022/12/23 00:52:53;;;;;;;2.60;0.93;;;10.50;99.90;;;;;;5001392;28;20029;-78
2022/12/23 00:55:19;;;;;;;3.65;0.90;;;10.50;99.90;;;;;;5009305;28;20433;-78
2022/12/23 00:57:45;;;;;;;3.95;0.80;;;10.50;99.90;;;;;;5000699;28;20041;-77
2022/12/23 01:00:11;;;;;;;3.28;0.80;;;10.60;99.90;;;;;;5002020;28;20115;-78
2022/12/23 01:05:38;;;;;;;3.38;0.85;;;10.60;99.90;;;;;;5027858;28;20060;-78
2022/12/23 01:08:06;;;;;;;4.85;0.80;;;10.60;99.90;;;;;;5004043;28;20080;-78
2022/12/23 01:10:37;;;;;;;2.15;0.88;;;10.60;99.90;;;;;;5032081;28;20037;-77
2022/12/23 01:13:03;;;;;;;3.40;1.20;;;10.60;99.90;;;;;;5010154;28;20047;-78
2022/12/23 01:15:29;;;;;;;5.13;1.15;;;10.60;99.90;;;;;;5004785;28;20029;-78
2022/12/23 01:17:54;;;;;;;1.00;0.75;;;10.60;99.90;;;;;;5012977;28;20030;-79
2022/12/23 01:20:20;;;;;;;2.58;0.77;;;10.50;99.90;;;;;;5009821;28;20036;-78
2022/12/23 01:22:46;;;;;;;3.00;1.17;;;10.40;99.90;;;;;;5004317;28;20480;-78
2022/12/23 01:25:12;;;;;;;2.00;0.70;;;10.50;99.90;;;;;;5011292;28;20087;-78
2022/12/23 01:27:38;;;;;;;0.82;0.57;;;10.50;99.90;;;;;;5007548;28;20044;-78
2022/12/23 01:30:04;;;;;;;2.90;0.63;;;10.50;99.90;;;;;;5000465;28;20041;-77
2022/12/23 01:32:30;;;;;;;4.03;0.70;;;10.50;99.90;;;;;;4999149;28;20346;-77
2022/12/23 01:34:55;;;;;;;2.00;0.73;;;10.60;99.90;;;;;;5002083;28;20029;-78
2022/12/23 01:37:21;;;;;;;1.65;0.50;;;10.60;99.90;;;;;;5014099;28;20355;-78
2022/12/23 01:39:46;;;;;;;1.98;0.70;;;10.60;99.90;;;;;;5003483;28;20070;-79
2022/12/23 01:45:02;;;;;;;1.88;0.70;;;10.50;99.90;;;;;;5026006;28;20064;-77
2022/12/23 01:47:53;;;;;;;1.73;0.73;;;10.60;99.90;;;;;;5011587;28;20029;-77
2022/12/23 01:50:19;;;;;;;;;;;10.50;99.90;;;;;;5024421;28;20033;-77
2022/12/23 01:53:13;;;;;;;1.75;0.70;;;10.40;99.90;;;;;;5004052;28;19936;-76
2022/12/23 01:56:02;;;;;;;0.70;0.50;;;10.40;99.90;;;;;;5021685;28;20456;-77
2022/12/23 01:58:32;;;;;;;0.75;0.50;;;10.40;99.90;;;;;;5010982;28;20044;-77
2022/12/23 02:03:46;;;;;;;0.63;0.40;;;10.40;99.90;;;;;;5024293;28;20647;-76
2022/12/23 02:09:17;;;;;;;0.90;0.50;;;10.50;99.90;;;;;;5018629;28;20040;-77
2022/12/23 02:12:17;;;;;;;1.27;0.60;;;10.50;99.90;;;;;;5002866;28;20938;-77
2022/12/23 02:18:11;;;;;;;1.48;0.63;;;10.50;99.90;;;;;;5029911;28;20048;-77
2022/12/23 02:20:40;;;;;;;1.95;1.10;;;10.50;99.90;;;;;;4961168;28;20087;-76
2022/12/23 02:23:24;;;;;;;4.40;1.83;;;10.50;99.90;;;;;;5011049;28;20509;-77
2022/12/23 02:26:26;;;;;;;2.97;2.20;;;10.50;99.90;;;;;;5011790;28;20076;-77
2022/12/23 02:29:22;;;;;;;5.72;3.05;;;10.50;99.90;;;;;;5017041;28;20113;-77
2022/12/23 02:32:10;;;;;;;6.00;2.42;;;10.50;99.90;;;;;;5002240;28;20041;-77
2022/12/23 02:35:06;;;;;;;2.65;1.60;;;10.40;99.90;;;;;;5021955;28;20072;-76
2022/12/23 02:37:52;;;;;;;2.38;1.73;;;10.50;99.90;;;;;;5010930;28;20498;-76
2022/12/23 02:41:05;;;;;;;2.78;1.40;;;10.50;99.90;;;;;;5018338;28;20079;-76
2022/12/23 02:43:41;;;;;;;2.50;1.10;;;10.40;99.90;;;;;;4986725;28;20033;-77
2022/12/23 02:46:22;;;;;;;1.50;1.00;;;10.40;99.90;;;;;;5001669;28;20161;-77
2022/12/23 02:48:56;;;;;;;1.05;0.80;;;10.40;99.90;;;;;;5003433;28;20533;-77
2022/12/23 02:51:28;;;;;;;1.92;0.80;;;10.30;99.90;;;;;;5009267;28;20386;-77
2022/12/23 02:53:58;;;;;;;1.52;0.80;;;10.20;99.90;;;;;;5003063;28;20022;-77
2022/12/23 02:56:27;;;;;;;1.23;0.60;;;10.20;99.90;;;;;;5000113;28;20110;-77
2022/12/23 02:58:57;;;;;;;2.47;0.60;;;10.20;99.90;;;;;;5017893;28;20025;-77
2022/12/23 03:01:25;;;;;;;0.52;0.45;;;10.20;99.90;;;;;;5000835;28;20568;-77
2022/12/23 03:03:51;;;;;;;1.10;0.50;;;10.30;99.90;;;;;;4999182;28;20113;-77
2022/12/23 03:06:31;;;;;;;3.70;0.60;;;10.40;99.90;;;;;;5006177;28;20156;-78
2022/12/23 03:08:59;;;;;;;1.05;0.50;;;10.40;99.90;;;;;;4993651;28;20033;-77
2022/12/23 03:11:38;;;;;;;0.60;0.40;;;10.40;99.90;;;;;;5015692;28;20894;-77
2022/12/23 03:14:26;;;;;;;1.08;0.40;;;10.40;99.90;;;;;;4995684;28;20245;-77
2022/12/23 03:17:04;;;;;;;2.50;0.47;;;10.40;99.90;;;;;;5012054;28;20037;-77
2022/12/23 03:19:40;;;;;;;0.70;0.43;;;10.40;99.90;;;;;;5009338;28;20022;-77
2022/12/23 03:22:08;;;;;;;1.60;0.40;;;10.40;99.90;;;;;;4999888;28;20212;-76
2022/12/23 03:24:34;;;;;;;0.75;0.50;;;10.40;99.90;;;;;;5006507;28;20479;-77
2022/12/23 03:27:06;;;;;;;1.30;0.63;;;10.40;99.90;;;;;;4998812;28;20302;-77
2022/12/23 03:29:37;;;;;;;;;;;10.40;99.90;;;;;;5019186;28;20091;-77
2022/12/23 03:32:04;;;;;;;1.70;0.68;;;10.40;99.90;;;;;;5028807;28;20019;-76
2022/12/23 03:34:36;;;;;;;2.90;0.52;;;10.40;99.90;;;;;;5006191;28;20029;-77
2022/12/23 03:37:05;;;;;;;1.23;0.55;;;10.40;99.90;;;;;;5002755;28;20083;-77
2022/12/23 03:39:45;;;;;;;2.67;0.60;;;10.30;99.90;;;;;;5011529;28;20477;-77
2022/12/23 03:42:21;;;;;;;0.88;0.40;;;10.30;99.90;;;;;;5011244;28;20056;-77
2022/12/23 03:44:49;;;;;;;0.73;0.40;;;10.30;99.90;;;;;;5011818;28;20523;-78
2022/12/23 03:47:33;;;;;;;1.55;0.50;;;10.30;99.90;;;;;;5003477;28;20501;-76
2022/12/23 03:50:07;;;;;;;3.50;0.50;;;10.30;99.90;;;;;;5030699;28;20090;-77
2022/12/23 03:52:44;;;;;;;0.60;0.50;;;10.30;99.90;;;;;;5018119;28;20159;-77
2022/12/23 03:55:17;;;;;;;0.70;0.40;;;10.30;99.90;;;;;;5003150;28;20064;-77
2022/12/23 03:58:18;;;;;;;0.95;0.50;;;10.30;99.90;;;;;;5006436;28;20510;-77
2022/12/23 04:01:18;;;;;;;0.82;0.32;;;10.30;99.90;;;;;;5024475;28;20072;-77
2022/12/23 04:03:52;;;;;;;0.40;0.38;;;10.30;99.90;;;;;;4968555;28;20054;-77
2022/12/23 04:06:19;;;;;;;0.30;0.30;;;10.20;99.90;;;;;;5005843;28;20041;-77
2022/12/23 04:08:46;;;;;;;1.30;0.52;;;10.20;99.90;;;;;;5005955;28;20041;-76
2022/12/23 04:11:13;;;;;;;1.23;0.93;;;10.20;99.90;;;;;;5013356;28;20072;-77
2022/12/23 04:13:39;;;;;;;0.80;0.40;;;10.10;99.90;;;;;;5006306;28;20029;-76
2022/12/23 04:16:05;;;;;;;3.78;0.60;;;10.10;99.90;;;;;;5012753;28;20029;-77
2022/12/23 04:18:31;;;;;;;1.00;0.40;;;10.10;99.90;;;;;;5010194;28;20036;-77
2022/12/23 04:20:57;;;;;;;1.70;0.60;;;10.10;99.90;;;;;;5024521;28;20396;-77
2022/12/23 04:23:23;;;;;;;1.30;0.70;;;10.10;99.90;;;;;;5013519;28;20021;-77
2022/12/23 04:25:48;;;;;;;1.73;0.52;;;10.10;99.90;;;;;;5001659;28;20124;-77
2022/12/23 04:28:14;;;;;;;3.00;0.40;;;10.20;99.90;;;;;;5004919;28;20034;-77
2022/12/23 04:30:40;;;;;;;2.20;0.73;;;10.10;99.90;;;;;;5008175;28;20132;-77
2022/12/23 04:33:06;;;;;;;2.13;0.40;;;10.10;99.90;;;;;;5009572;28;20583;-77
2022/12/23 04:35:31;;;;;;;3.65;0.82;;;10.10;99.90;;;;;;5013563;28;20033;-77
2022/12/23 04:37:57;;;;;;;1.20;0.70;;;10.00;99.90;;;;;;5005766;28;20454;-77
2022/12/23 04:40:23;;;;;;;0.88;0.70;;;9.90;99.90;;;;;;5009037;28;20041;-77
2022/12/23 04:42:48;;;;;;;1.30;0.70;;;9.80;99.90;;;;;;5008103;28;20571;-77
2022/12/23 04:45:14;;;;;;;3.58;1.27;;;9.90;99.90;;;;;;5003421;28;20392;-77
2022/12/23 04:47:40;;;;;;;2.20;0.68;;;10.00;99.90;;;;;;5024205;28;20064;-77
2022/12/23 04:50:06;;;;;;;4.43;0.80;;;10.00;99.90;;;;;;5008334;28;20033;-78
2022/12/23 04:52:32;;;;;;;1.77;0.93;;;10.00;99.90;;;;;;5010654;28;20099;-77
2022/12/23 04:54:57;;;;;;;3.03;1.00;;;10.10;99.90;;;;;;4998174;28;20477;-77
2022/12/23 04:57:23;;;;;;;2.47;1.15;;;10.10;99.90;;;;;;5009760;28;20481;-77
2022/12/23 04:59:49;;;;;;;2.97;1.05;;;10.10;99.90;;;;;;5011891;28;20040;-77
2022/12/23 05:02:14;;;;;;;6.35;1.40;;;10.10;99.90;;;;;;5011840;28;20179;-77
2022/12/23 05:04:40;;;;;;;5.60;1.20;;;10.00;99.90;;;;;;4998211;28;20041;-77
2022/12/23 05:07:06;;;;;;;6.72;1.35;;;10.00;99.90;;;;;;4999756;28;20037;-76
2022/12/23 05:09:31;;;;;;;5.20;1.10;;;9.90;99.90;;;;;;5000665;28;20029;-75
2022/12/23 05:11:57;;;;;;;4.25;1.02;;;9.90;99.90;;;;;;5004079;28;20139;-76
2022/12/23 05:14:23;;;;;;;2.47;0.93;;;9.80;99.90;;;;;;5011973;28;20028;-77
2022/12/23 05:16:48;;;;;;;4.50;1.10;;;9.80;99.90;;;;;;5007222;28;20033;-77
2022/12/23 05:19:14;;;;;;;5.18;1.15;;;9.80;99.90;;;;;;5029217;28;20022;-77
2022/12/23 05:21:40;;;;;;;6.05;0.98;;;9.70;99.90;;;;;;4996652;28;20572;-77
2022/12/23 05:24:05;;;;;;;4.57;1.25;;;9.80;99.90;;;;;;5006715;28;20082;-77
2022/12/23 05:26:31;;;;;;;3.60;1.17;;;9.80;99.90;;;;;;5003710;28;20044;-77
2022/12/23 05:28:56;;;;;;;1.80;0.90;;;9.80;99.90;;;;;;5022204;28;20096;-77
2022/12/23 05:31:22;;;;;;;4.85;1.10;;;9.90;99.90;;;;;;5007651;28;20078;-77
2022/12/23 05:33:48;;;;;;;4.53;1.10;;;9.90;99.90;;;;;;5007116;28;20180;-77
2022/12/23 05:36:13;;;;;;;4.03;0.93;;;9.90;99.90;;;;;;5010997;28;20576;-77
2022/12/23 05:38:39;;;;;;;7.57;0.98;;;9.90;99.90;;;;;;5008309;28;20025;-77
2022/12/23 05:41:05;;;;;;;4.85;1.00;;;9.90;99.90;;;;;;5003105;28;20045;-77
2022/12/23 05:43:31;;;;;;;3.20;0.98;;;9.90;99.90;;;;;;5008699;28;20128;-77
2022/12/23 05:45:57;;;;;;;4.30;0.90;;;9.90;99.90;;;;;;5014117;28;20112;-77
2022/12/23 05:48:23;;;;;;;3.65;1.13;;;9.90;99.90;;;;;;5004421;28;20033;-77
2022/12/23 05:50:49;;;;;;;3.00;1.15;;;9.90;99.90;;;;;;5004085;28;20037;-77
2022/12/23 05:53:16;;;;;;;4.90;1.30;;;9.90;99.90;;;;;;5003918;28;20029;-77
2022/12/23 05:55:41;;;;;;;6.60;1.83;;;9.90;99.90;;;;;;5001687;28;20030;-77
2022/12/23 05:58:07;;;;;;;5.47;1.40;;;9.90;99.90;;;;;;5000052;28;20033;-77
2022/12/23 06:00:33;;;;;;;7.55;2.10;;;9.90;99.90;;;;;;5008658;28;20320;-78
2022/12/23 06:02:59;;;;;;;4.25;1.27;;;9.80;99.90;;;;;;5003834;28;20464;-76
2022/12/23 06:05:24;;;;;;;4.55;1.60;;;9.80;99.90;;;;;;5010573;28;20033;-76
2022/12/23 06:07:50;;;;;;;5.38;1.67;;;9.70;99.90;;;;;;4999488;28;20086;-77
2022/12/23 06:10:16;;;;;;;5.95;1.58;;;9.70;99.90;;;;;;5008769;28;20056;-77
2022/12/23 06:12:42;;;;;;;7.88;1.77;;;9.60;99.90;;;;;;5002633;28;20036;-78
2022/12/23 06:15:08;;;;;;;6.53;1.48;;;9.60;99.90;;;;;;5004601;28;20033;-78
2022/12/23 06:17:34;;;;;;;3.88;1.63;;;9.70;99.90;;;;;;5015993;28;20061;-77
2022/12/23 06:20:00;;;;;;;7.85;1.88;;;9.70;99.90;;;;;;5014150;28;20111;-77
2022/12/23 06:22:25;;;;;;;4.40;1.90;;;9.60;99.90;;;;;;5010836;28;20144;-77
2022/12/23 06:24:51;;;;;;;8.93;1.58;;;9.60;99.90;;;;;;5012591;28;20021;-77
2022/12/23 06:27:17;;;;;;;12.48;2.60;;;9.50;99.90;;;;;;5013942;28;20048;-77
2022/12/23 06:29:43;;;;;;;9.20;2.60;;;9.40;99.90;;;;;;5023440;28;20660;-77
2022/12/23 06:32:09;;;;;;;7.68;2.15;;;9.40;99.90;;;;;;5003102;28;20041;-78
2022/12/23 06:34:34;;;;;;;13.95;2.38;;;9.20;99.90;;;;;;5015602;28;20036;-76
2022/12/23 06:37:00;;;;;;;7.50;2.20;;;9.20;99.90;;;;;;5001333;28;20113;-78
2022/12/23 06:39:26;;;;;;;7.68;2.20;;;9.10;99.90;;;;;;5017506;28;20036;-76
2022/12/23 06:41:52;;;;;;;10.35;2.60;;;9.10;99.90;;;;;;5006608;28;20056;-77
2022/12/23 06:44:18;;;;;;;8.07;2.53;;;9.10;99.90;;;;;;5006407;28;20038;-77
2022/12/23 06:46:44;;;;;;;6.72;2.30;;;9.20;99.90;;;;;;4997740;28;20037;-77
2022/12/23 06:49:09;;;;;;;6.88;2.20;;;9.10;99.90;;;;;;5003485;28;20029;-77
2022/12/23 06:51:35;;;;;;;4.68;1.73;;;9.10;99.90;;;;;;5000100;28;20123;-78
2022/12/23 06:54:01;;;;;;;4.55;2.03;;;9.10;99.90;;;;;;5029586;28;20504;-78
2022/12/23 06:56:27;;;;;;;6.80;2.17;;;9.20;99.90;;;;;;5019546;28;20033;-76
2022/12/23 06:58:52;;;;;;;6.68;2.22;;;9.10;99.90;;;;;;4998913;28;20033;-77
2022/12/23 07:01:19;;;;;;;8.32;2.53;;;9.10;99.90;;;;;;5022136;28;20052;-77
2022/12/23 07:03:44;;;;;;;11.70;2.35;;;9.10;99.90;;;;;;5015188;28;20498;-77
2022/12/23 07:06:10;;;;;;;8.40;2.35;;;9.00;99.90;;;;;;5021084;28;20026;-77
2022/12/23 07:08:35;;;;;;;7.57;2.40;;;9.00;99.90;;;;;;5021800;28;20044;-76
2022/12/23 07:11:03;;;;;;;14.20;3.15;;;9.00;99.90;;;;;;5027885;28;20517;-77
2022/12/23 07:13:30;;;;;;;10.27;3.00;;;8.90;99.90;;;;;;5004584;28;20526;-77
2022/12/23 07:15:56;;;;;;;7.03;3.15;;;9.00;99.90;;;;;;5006054;28;20030;-77
2022/12/23 07:18:22;;;;;;;7.05;3.38;;;9.00;99.90;;;;;;5024508;28;20128;-75
2022/12/23 07:20:49;;;;;;;8.82;2.95;;;9.00;99.90;;;;;;5013486;28;20568;-76
2022/12/23 07:23:15;;;;;;;5.07;2.80;;;9.00;99.90;;;;;;5018649;28;20037;-75
2022/12/23 07:25:40;;;;;;;7.82;2.88;;;9.00;99.90;;;;;;5016974;28;20386;-75
2022/12/23 07:28:06;;;;;;;9.77;3.13;;;9.00;99.90;;;;;;5001333;28;20060;-75
2022/12/23 07:30:32;;;;;;;6.68;2.60;;;9.00;99.90;;;;;;5014289;28;20037;-75
2022/12/23 07:32:57;;;;;;;9.82;3.42;;;9.10;99.90;;;;;;4993377;28;20097;-75
2022/12/23 07:35:23;;;;;;;9.93;3.38;;;9.10;99.90;;;;;;5007501;28;20568;-77
2022/12/23 07:37:54;;;;;;;9.52;3.10;;;9.10;99.90;;;;;;4995824;28;20029;-77
2022/12/23 07:40:20;;;;;;;12.40;3.33;;;9.10;99.90;;;;;;5004268;28;20053;-76
2022/12/23 07:42:52;;;;;;;11.23;3.08;;;9.10;99.90;;;;;;5003833;28;20488;-77
2022/12/23 07:45:18;;;;;;;13.38;3.78;;;9.10;99.90;;;;;;5010502;28;20308;-77
2022/12/23 07:47:44;;;;;;;9.50;3.00;;;9.10;99.90;;;;;;4995553;28;20599;-80
2022/12/23 07:50:09;;;;;;;10.60;2.67;;;9.10;99.90;;;;;;4997976;28;20029;-80
2022/12/23 07:52:35;;;;;;;8.60;2.67;;;9.20;99.90;;;;;;5002832;28;20619;-80
2022/12/23 07:55:01;;;;;;;10.13;3.40;;;9.20;99.90;;;;;;5002476;28;20453;-80
2022/12/23 07:57:28;;;;;;;10.88;3.10;;;9.20;99.90;;;;;;5001796;28;20066;-79
2022/12/23 07:59:53;;;;;;;9.63;3.15;;;9.20;99.90;;;;;;5017949;28;20064;-80
2022/12/23 08:02:20;;;;;;;9.73;3.03;;;9.10;99.90;;;;;;5018933;28;20481;-79
2022/12/23 08:04:46;;;;;;;7.45;3.13;;;9.20;99.90;;;;;;5000131;28;20037;-80
2022/12/23 08:07:12;;;;;;;8.82;3.50;;;9.20;99.90;;;;;;4996028;28;20376;-79
2022/12/23 08:09:37;;;;;;;9.82;3.42;;;9.20;99.90;;;;;;4996684;28;20042;-79
2022/12/23 08:12:03;;;;;;;10.25;3.40;;;9.20;99.90;;;;;;5001796;28;20044;-80
2022/12/23 08:14:28;;;;;;;8.63;3.75;;;9.20;99.90;;;;;;5010523;28;20136;-82
2022/12/23 08:16:54;;;;;;;10.63;3.47;;;9.30;99.90;;;;;;5017356;28;20047;-81
2022/12/23 08:19:20;;;;;;;7.43;3.13;;;9.30;99.90;;;;;;4997145;28;20324;-81
2022/12/23 08:21:45;;;;;;;6.20;2.97;;;9.30;99.90;;;;;;4991039;28;20037;-81
2022/12/23 08:24:11;;;;;;;9.07;3.63;;;9.30;99.90;;;;;;5019194;28;20485;-80
2022/12/23 08:26:36;;;;;;;6.53;3.08;;;9.30;99.90;;;;;;4999339;28;20033;-82
2022/12/23 08:29:02;;;;;;;8.05;3.10;;;9.30;99.90;;;;;;5021385;28;20029;-82
2022/12/23 08:31:30;;;;;;;6.15;2.80;;;9.30;99.90;;;;;;5003115;28;20416;-81
2022/12/23 08:33:57;;;;;;;9.30;2.90;;;9.40;99.90;;;;;;5003735;28;20041;-81
2022/12/23 08:36:26;;;;;;;6.65;2.80;;;9.40;99.90;;;;;;5002589;28;20041;-81
2022/12/23 08:38:54;;;;;;;4.70;2.55;;;9.50;99.90;;;;;;5003606;28;20036;-81
2022/12/23 08:41:27;;;;;;;5.18;2.45;;;9.50;99.90;;;;;;5002930;28;20053;-81
2022/12/23 08:43:53;;;;;;;6.60;3.17;;;9.60;99.90;;;;;;5020517;28;20021;-80
2022/12/23 08:46:19;;;;;;;4.30;2.33;;;9.60;99.90;;;;;;4990559;28;20835;-81
2022/12/23 08:48:45;;;;;;;6.30;1.88;;;9.60;99.90;;;;;;4989968;28;20030;-82
2022/12/23 08:51:15;;;;;;;4.22;2.00;;;9.60;99.90;;;;;;5000329;28;20482;-81
2022/12/23 08:53:41;;;;;;;2.80;1.45;;;9.70;99.90;;;;;;5002224;28;20215;-81
2022/12/23 08:56:17;;;;;;;3.35;1.55;;;9.70;99.90;;;;;;4997542;28;20167;-81
2022/12/23 08:58:45;;;;;;;2.92;1.27;;;9.70;99.90;;;;;;5015077;28;20886;-79
2022/12/23 09:01:12;;;;;;;1.67;0.88;;;9.80;99.90;;;;;;5014031;28;20573;-80
2022/12/23 09:03:39;;;;;;;1.80;0.60;;;9.80;99.90;;;;;;5030831;28;20022;-80
2022/12/23 09:06:06;;;;;;;1.30;0.60;;;9.90;99.90;;;;;;5000004;28;20509;-78
2022/12/23 09:08:32;;;;;;;0.90;0.60;;;10.10;99.90;;;;;;4991216;28;20688;-79
2022/12/23 09:10:58;;;;;;;1.40;0.60;;;10.20;99.90;;;;;;4994650;28;20281;-79
2022/12/23 09:13:23;;;;;;;1.15;0.57;;;10.40;99.90;;;;;;5000525;28;20033;-78
2022/12/23 09:15:49;;;;;;;2.75;0.80;;;10.60;99.90;;;;;;4999898;28;20033;-78
2022/12/23 09:18:15;;;;;;;6.72;1.40;;;11.00;99.90;;;;;;5015606;28;20115;-75
2022/12/23 09:20:40;;;;;;;7.93;1.40;;;11.50;99.90;;;;;;5017655;28;20303;-76
2022/12/23 09:23:06;;;;;;;7.40;1.50;;;11.80;99.90;;;;;;4990937;28;20083;-75
2022/12/23 09:25:34;;;;;;;8.52;0.77;;;11.90;99.90;;;;;;5014744;28;20722;-76
2022/12/23 09:28:00;;;;;;;2.80;1.00;;;12.10;99.90;;;;;;4995182;28;20073;-75
2022/12/23 09:30:25;;;;;;;4.00;1.05;;;12.20;99.90;;;;;;5011978;28;20320;-75
2022/12/23 09:32:51;;;;;;;4.32;1.08;;;12.30;99.90;;;;;;4999542;28;20044;-75
2022/12/23 09:35:16;;;;;;;4.00;0.70;;;12.30;99.90;;;;;;5016795;28;20447;-77
2022/12/23 09:37:42;;;;;;;9.63;1.23;;;12.30;99.90;;;;;;5015661;28;20176;-78
2022/12/23 09:40:13;;;;;;;9.27;1.35;;;12.40;99.90;;;;;;5015069;28;20152;-76
2022/12/23 09:43:08;;;;;;;10.82;1.80;;;12.40;99.90;;;;;;5016282;28;20028;-79
2022/12/23 09:45:48;;;;;;;18.60;2.33;;;12.40;99.90;;;;;;5018747;28;20038;-81
2022/12/23 09:48:19;;;;;;;24.45;2.72;;;12.40;99.90;;;;;;5003853;28;20026;-75
2022/12/23 09:50:45;;;;;;;20.40;3.08;;;12.30;99.90;;;;;;5017672;28;20061;-76
2022/12/23 09:53:11;;;;;;;26.65;3.28;;;12.30;99.90;;;;;;4996780;28;20036;-74
2022/12/23 09:55:58;;;;;;;29.35;3.50;;;12.30;99.90;;;;;;5012509;28;20476;-74
2022/12/23 09:59:02;;;;;;;31.65;3.00;;;12.30;99.90;;;;;;4992005;28;20713;-73
2022/12/23 10:01:34;;;;;;;28.80;2.90;;;12.30;99.90;;;;;;5019008;28;20071;-74
2022/12/23 10:04:18;;;;;;;33.20;3.55;;;12.20;99.90;;;;;;5017646;28;20034;-74
2022/12/23 10:06:49;;;;;;;29.08;4.30;;;12.20;99.90;;;;;;5002766;28;20045;-75
2022/12/23 10:09:17;;;;;;;29.15;3.22;;;12.30;99.90;;;;;;5014498;28;20025;-73
2022/12/23 10:11:48;;;;;;;26.90;3.15;;;12.30;99.90;;;;;;5014406;28;20160;-74
2022/12/23 10:14:28;;;;;;;26.33;4.05;;;12.40;99.90;;;;;;5013170;28;20129;-74
2022/12/23 10:16:58;;;;;;;23.88;3.38;;;12.40;99.90;;;;;;5013392;28;20366;-73
2022/12/23 10:19:42;;;;;;;31.80;3.50;;;12.50;99.90;;;;;;5008973;28;20460;-74
2022/12/23 10:22:22;;;;;;;24.77;2.75;;;12.50;99.90;;;;;;5014395;28;20037;-74
2022/12/23 10:24:48;;;;;;;21.35;2.67;;;12.50;99.90;;;;;;5007633;28;20836;-74
2022/12/23 10:27:39;;;;;;;24.33;2.85;;;12.50;99.90;;;;;;5017764;28;20064;-74
2022/12/23 10:30:12;;;;;;;17.77;1.90;;;12.40;99.90;;;;;;4998332;28;20021;-73
2022/12/23 10:33:00;;;;;;;20.77;1.83;;;12.40;99.90;;;;;;5017907;28;20772;-73
2022/12/23 10:35:54;;;;;;;12.60;1.73;;;12.30;99.90;;;;;;5010537;28;20044;-80
2022/12/23 10:38:44;;;;;;;22.63;2.50;;;12.30;99.90;;;;;;5019784;28;20029;-74
2022/12/23 10:41:28;;;;;;;21.23;2.30;;;12.40;99.90;;;;;;5012745;28;20049;-75
2022/12/23 10:44:17;;;;;;;20.52;2.58;;;12.50;99.90;;;;;;4999801;28;20040;-75
2022/12/23 10:47:00;;;;;;;26.23;3.85;;;12.50;99.90;;;;;;5018144;28;20056;-76
2022/12/23 10:49:32;;;;;;;19.50;2.53;;;12.60;99.90;;;;;;4997567;28;20029;-78
2022/12/23 10:52:04;;;;;;;19.58;2.80;;;12.50;99.90;;;;;;4998572;28;20041;-75
2022/12/23 10:54:33;;;;;;;20.15;2.22;;;12.50;99.90;;;;;;5009368;28;20022;-75
2022/12/23 10:57:00;;;;;;;20.30;2.08;;;12.70;99.90;;;;;;5014268;28;20033;-75
2022/12/23 10:59:35;;;;;;;17.25;1.95;;;12.70;99.90;;;;;;4997660;28;20512;-75
2022/12/23 11:02:13;;;;;;;18.98;2.10;;;12.70;99.90;;;;;;4999918;28;20040;-75
2022/12/23 11:04:45;;;;;;;14.88;1.95;;;12.60;99.90;;;;;;4997456;28;20102;-76
2022/12/23 11:07:21;;;;;;;20.65;2.85;;;12.50;99.90;;;;;;4999576;28;20035;-76
2022/12/23 11:09:53;;;;;;;18.65;2.05;;;12.50;99.90;;;;;;5013938;28;20029;-75
2022/12/23 11:12:35;;;;;;;17.02;2.10;;;12.50;99.90;;;;;;4995223;28;20603;-75
2022/12/23 11:15:01;;;;;;;17.42;2.08;;;12.50;99.90;;;;;;5007806;28;20529;-74
2022/12/23 11:17:33;;;;;;;12.05;1.40;;;12.50;99.90;;;;;;5006109;28;20029;-75
2022/12/23 11:20:14;;;;;;;16.63;2.10;;;12.60;99.90;;;;;;5015187;28;20044;-73
2022/12/23 11:22:55;;;;;;;20.17;2.72;;;12.70;99.90;;;;;;5005314;28;20036;-74
2022/12/23 11:25:29;;;;;;;20.67;2.53;;;12.80;99.90;;;;;;5009745;28;20029;-74
2022/12/23 11:28:23;;;;;;;12.80;1.88;;;12.90;99.90;;;;;;5001866;28;20491;-74
2022/12/23 11:31:10;;;;;;;16.65;2.30;;;13.00;99.90;;;;;;4979741;28;20054;-74
2022/12/23 11:33:44;;;;;;;12.20;1.80;;;13.10;99.90;;;;;;5014928;28;20032;-75
2022/12/23 11:36:12;;;;;;;11.55;1.95;;;13.30;99.90;;;;;;5015260;28;20037;-74
2022/12/23 11:39:06;;;;;;;12.10;2.00;;;13.30;99.90;;;;;;5015894;28;20034;-75
2022/12/23 11:41:44;;;;;;;13.70;1.98;;;13.50;99.90;;;;;;5017859;28;20068;-74
2022/12/23 11:44:19;;;;;;;11.00;1.58;;;13.40;99.90;;;;;;5017045;28;20056;-75
2022/12/23 11:46:44;;;;;;;10.23;1.60;;;13.40;99.90;;;;;;5019587;28;20079;-74
2022/12/23 11:49:16;;;;;;;9.90;1.67;;;13.40;99.90;;;;;;5008790;28;20029;-74
2022/12/23 11:51:57;;;;;;;9.02;1.70;;;13.30;99.90;;;;;;5004592;28;20507;-73
2022/12/23 11:54:23;;;;;;;10.45;1.67;;;13.30;99.90;;;;;;5015282;28;20033;-72
2022/12/23 11:56:51;;;;;;;21.20;2.58;;;13.20;99.90;;;;;;5003507;28;20605;-73
2022/12/23 11:59:41;;;;;;;12.80;1.80;;;13.30;99.90;;;;;;5015255;28;20268;-72
2022/12/23 12:02:22;;;;;;;18.30;2.50;;;13.10;99.90;;;;;;4996098;28;20082;-73
2022/12/23 12:04:59;;;;;;;19.25;2.88;;;13.00;99.90;;;;;;4987162;28;20033;-75
2022/12/23 12:07:25;;;;;;;21.77;3.55;;;13.00;99.90;;;;;;4997587;28;20060;-75
2022/12/23 12:09:55;;;;;;;23.38;3.53;;;12.90;99.90;;;;;;5016835;28;20109;-75
2022/12/23 12:12:21;;;;;;;34.58;4.32;;;12.70;99.90;;;;;;5016713;28;20037;-76
2022/12/23 12:14:55;;;;;;;36.97;5.07;;;12.60;99.90;;;;;;5007780;28;20051;-76
2022/12/23 12:17:39;;;;;;;35.33;4.65;;;12.60;99.90;;;;;;5011546;28;20025;-76
2022/12/23 12:20:10;;;;;;;43.90;5.28;;;12.50;99.90;;;;;;5020124;28;20030;-77
2022/12/23 12:22:45;;;;;;;41.10;4.85;;;12.40;99.90;;;;;;5001637;28;20033;-80
2022/12/23 12:25:19;;;;;;;46.30;4.93;;;12.40;99.90;;;;;;5014084;28;20468;-78
2022/12/23 12:28:00;;;;;;;52.67;5.57;;;12.40;99.90;;;;;;5003444;28;20084;-75
2022/12/23 12:30:42;;;;;;;42.63;4.93;;;12.50;99.90;;;;;;5011218;28;20099;-81
2022/12/23 12:33:24;;;;;;;41.25;7.20;;;12.60;99.90;;;;;;5005259;28;20075;-74
2022/12/23 12:36:17;;;;;;;32.83;5.35;;;12.50;99.90;;;;;;5018195;28;20032;-74
2022/12/23 12:38:46;;;;;;;35.63;5.30;;;12.50;99.90;;;;;;5019153;28;20491;-80
2022/12/23 12:41:17;;;;;;;40.25;5.20;;;12.50;99.90;;;;;;5026493;28;20349;-76
2022/12/23 12:43:55;;;;;;;40.73;6.33;;;12.60;99.90;;;;;;5017024;28;20160;-76
2022/12/23 12:46:32;;;;;;;51.22;5.70;;;12.90;99.90;;;;;;5013622;28;20403;-76
2022/12/23 12:49:11;;;;;;;42.20;5.55;;;13.20;99.90;;;;;;5001568;28;20056;-77
2022/12/23 12:51:42;;;;;;;41.70;5.22;;;13.50;99.90;;;;;;4995064;28;20504;-77
2022/12/23 12:54:24;;;;;;;42.80;7.47;;;13.60;99.90;;;;;;4998824;28;20025;-79
2022/12/23 12:56:53;;;;;;;49.08;6.40;;;13.50;99.90;;;;;;5022629;28;20060;-80
2022/12/23 12:59:32;;;;;;;45.28;5.40;;;13.60;99.90;;;;;;5003698;28;20064;-76
2022/12/23 13:02:35;;;;;;;38.97;4.88;;;13.40;99.90;;;;;;5002149;28;20064;-78
2022/12/23 13:05:09;;;;;;;36.97;4.57;;;13.60;99.90;;;;;;5003408;28;20048;-82
2022/12/23 13:08:03;;;;;;;40.13;5.68;;;13.60;99.90;;;;;;5021431;28;20073;-79
2022/12/23 13:10:32;;;;;;;42.47;6.10;;;13.50;99.90;;;;;;5018185;28;20468;-78
2022/12/23 13:13:29;;;;;;;35.30;5.32;;;13.60;99.90;;;;;;5020797;28;20107;-79
2022/12/23 13:15:58;;;;;;;39.72;5.57;;;13.70;99.90;;;;;;5020813;28;20029;-76
2022/12/23 13:18:26;;;;;;;40.00;5.63;;;13.90;99.90;;;;;;5017637;28;20109;-78
2022/12/23 13:20:58;;;;;;;43.63;5.50;;;13.90;99.90;;;;;;5020654;28;20441;-79
2022/12/23 13:23:59;;;;;;;37.95;6.43;;;13.70;99.90;;;;;;5014133;28;20030;-76
2022/12/23 13:26:38;;;;;;;34.87;5.23;;;13.80;99.90;;;;;;5011571;28;20167;-76
2022/12/23 13:29:28;;;;;;;38.78;5.00;;;13.80;99.90;;;;;;5021834;28;20366;-78
2022/12/23 13:32:00;;;;;;;38.58;4.68;;;13.60;99.90;;;;;;5001831;28;20033;-77
2022/12/23 13:34:44;;;;;;;33.25;4.22;;;13.30;99.90;;;;;;5002943;28;20029;-79
2022/12/23 13:37:31;;;;;;;30.55;4.22;;;13.10;99.90;;;;;;4994413;28;20032;-76